TimeIST,TemperatureF,Dew PointF,Humidity,Sea Level PressureIn,VisibilityMPH,Wind Direction,Wind SpeedMPH,Gust SpeedMPH,PrecipitationIn,Events,Conditions,WindDirDegrees,DateUTC
12:00 AM,51.8,48.2,88,29.86,6.2,SSW,10.4,-,N/A,,Partly Cloudy,200,2012-09-16 23:00:00
12:30 AM,51.8,48.2,88,29.86,6.2,SW,11.5,-,N/A,Rain,Light Rain Showers,220,2012-09-16 23:30:00
1:00 AM,52,48,83,29.88,12,SSW,11.2,,,Rain,Light Rain Showers,210,2012-09-17 00:00:00
1:00 AM,51.8,48.2,88,29.86,-9999.0,SSW,10.4,-,N/A,,Clear,210,2012-09-17 00:00:00
1:30 AM,51.8,48.2,88,29.86,-9999.0,SW,10.4,-,N/A,,Clear,220,2012-09-17 00:30:00
2:00 AM,53.6,48.2,82,29.86,-9999.0,SSW,12.7,-,N/A,,Clear,210,2012-09-17 01:00:00
2:30 AM,51.8,50.0,94,29.86,6.2,SW,11.5,-,N/A,Rain,Light Rain Showers,220,2012-09-17 01:30:00
3:00 AM,53.6,50.0,88,29.86,6.2,SW,13.8,-,N/A,,Mostly Cloudy,230,2012-09-17 02:00:00
3:30 AM,53.6,50.0,88,29.86,6.2,SW,13.8,-,N/A,,Mostly Cloudy,230,2012-09-17 02:30:00
4:00 AM,51.8,50.0,94,29.83,6.2,SSW,9.2,-,N/A,Rain,Light Rain Showers,210,2012-09-17 03:00:00
4:30 AM,51.8,50.0,94,29.83,6.2,SSW,10.4,-,N/A,,Mostly Cloudy,210,2012-09-17 03:30:00
5:00 AM,53.6,51.8,94,29.83,6.2,SW,15.0,-,N/A,,Partly Cloudy,230,2012-09-17 04:00:00
5:30 AM,53.6,51.8,94,29.83,6.2,WSW,15.0,-,N/A,,Scattered Clouds,240,2012-09-17 04:30:00
6:00 AM,51.8,50.0,94,29.83,6.2,WSW,12.7,-,N/A,,Mostly Cloudy,250,2012-09-17 05:00:00
6:30 AM,53.6,50.0,88,29.83,6.2,SW,13.8,-,N/A,,Scattered Clouds,230,2012-09-17 05:30:00
7:00 AM,54,51,86,29.83,12,SW,13.4,,,,Partly Cloudy,230,2012-09-17 06:00:00
7:30 AM,53.6,50.0,88,29.83,6.2,SW,15.0,-,N/A,,Partly Cloudy,230,2012-09-17 06:30:00
8:00 AM,53.6,50.0,88,29.80,6.2,SW,11.5,-,N/A,,Scattered Clouds,230,2012-09-17 07:00:00
8:30 AM,53.6,50.0,88,29.80,5.6,SSW,12.7,-,N/A,Rain,Light Rain Showers,210,2012-09-17 07:30:00
9:00 AM,53.6,51.8,94,29.80,6.2,SSW,17.3,-,N/A,,Mostly Cloudy,210,2012-09-17 08:00:00
9:30 AM,55.4,50.0,82,29.80,6.2,SW,13.8,-,N/A,,Scattered Clouds,220,2012-09-17 08:30:00
10:00 AM,55.4,51.8,88,29.80,6.2,SW,15.0,-,N/A,Rain,Light Rain Showers,220,2012-09-17 09:00:00
10:30 AM,51.8,50.0,94,29.80,6.2,SW,17.3,-,N/A,,Mostly Cloudy,220,2012-09-17 09:30:00
11:00 AM,55.4,50.0,82,29.83,6.2,SW,13.8,-,N/A,,Mostly Cloudy,220,2012-09-17 10:00:00
11:30 AM,57.2,50.0,77,29.80,6.2,SW,15.0,-,N/A,Rain,Light Rain Showers,220,2012-09-17 10:30:00
12:00 PM,53.6,51.8,94,29.83,5.6,West,25.3,-,N/A,Rain,Light Rain Showers,260,2012-09-17 11:00:00
12:30 PM,53.6,50.0,88,29.83,6.2,WSW,17.3,-,N/A,,Mostly Cloudy,240,2012-09-17 11:30:00
1:00 PM,54,52,90,29.84,5,SW,13.4,,,Rain,Light Rain Showers,230,2012-09-17 12:00:00
1:00 PM,53.6,51.8,94,29.83,6.2,SW,12.7,-,N/A,Rain,Light Rain Showers,230,2012-09-17 12:00:00
1:30 PM,55.4,53.6,94,29.83,5.0,SW,15.0,-,N/A,Rain,Light Rain Showers,230,2012-09-17 12:30:00
2:00 PM,55.4,53.6,94,29.80,5.6,WSW,15.0,-,N/A,Rain,Light Rain Showers,250,2012-09-17 13:00:00
2:30 PM,55.4,51.8,88,29.80,3.1,WSW,15.0,-,N/A,Rain,Light Rain Showers,250,2012-09-17 13:30:00
3:00 PM,57.2,51.8,82,29.80,6.2,West,13.8,-,N/A,,Scattered Clouds,260,2012-09-17 14:00:00
3:30 PM,57.2,50.0,77,29.80,6.2,West,19.6,-,N/A,,Mostly Cloudy,260,2012-09-17 14:30:00
4:00 PM,57.2,48.2,72,29.80,6.2,WSW,15.0,-,N/A,,Mostly Cloudy,250,2012-09-17 15:00:00
4:30 PM,57.2,50.0,77,29.80,6.2,WNW,15.0,-,N/A,,Mostly Cloudy,290,2012-09-17 15:30:00
5:00 PM,57.2,50.0,77,29.80,6.2,West,12.7,-,N/A,,Mostly Cloudy,270,2012-09-17 16:00:00
5:30 PM,59.0,50.0,72,29.80,6.2,WSW,15.0,-,N/A,,Partly Cloudy,250,2012-09-17 16:30:00
6:00 PM,57.2,48.2,72,29.80,6.2,West,18.4,-,N/A,,Scattered Clouds,260,2012-09-17 17:00:00
6:30 PM,55.4,50.0,82,29.80,6.2,WSW,15.0,-,N/A,,Scattered Clouds,250,2012-09-17 17:30:00
7:00 PM,53,50,86,29.82,16,West,15.7,,,Rain,Light Rain Showers,260,2012-09-17 18:00:00
7:00 PM,53.6,50.0,88,29.80,6.2,West,16.1,-,N/A,,Scattered Clouds,260,2012-09-17 18:00:00
7:30 PM,51.8,48.2,88,29.80,6.2,WSW,11.5,-,N/A,,Partly Cloudy,250,2012-09-17 18:30:00
8:00 PM,51.8,50.0,94,29.83,6.2,WSW,10.4,-,N/A,,Scattered Clouds,250,2012-09-17 19:00:00
8:30 PM,53.6,48.2,82,29.83,6.2,WSW,5.8,-,N/A,,Mostly Cloudy,250,2012-09-17 19:30:00
9:00 PM,53.6,48.2,82,29.83,6.2,West,12.7,-,N/A,,Mostly Cloudy,260,2012-09-17 20:00:00
9:30 PM,53.6,46.4,77,29.83,6.2,West,11.5,-,N/A,,Mostly Cloudy,270,2012-09-17 20:30:00
10:00 PM,51.8,46.4,82,29.83,6.2,WSW,11.5,-,N/A,,Partly Cloudy,250,2012-09-17 21:00:00
10:30 PM,51.8,48.2,88,29.86,6.2,West,9.2,-,N/A,,Mostly Cloudy,270,2012-09-17 21:30:00
11:00 PM,51.8,46.4,82,29.83,6.2,WSW,9.2,-,N/A,,Partly Cloudy,250,2012-09-17 22:00:00
11:30 PM,50.0,46.4,87,29.86,6.2,West,9.2,-,N/A,,Partly Cloudy,270,2012-09-17 22:30:00